createdAt,value
2018-10-02T00:00:46.101Z,88.90
2018-10-02T00:03:13.881Z,89.00
2018-10-02T00:05:41.665Z,86.10
2018-10-02T00:08:09.453Z,86.10
2018-10-02T00:10:37.243Z,84.20
2018-10-02T00:13:10.718Z,83.70
2018-10-02T00:15:38.497Z,82.50
2018-10-02T00:18:06.249Z,82.30
2018-10-02T00:20:34.075Z,82.70
2018-10-02T00:23:01.907Z,83.00
2018-10-02T00:25:29.656Z,82.20
2018-10-02T00:27:57.430Z,82.90
2018-10-02T00:30:25.186Z,83.40
2018-10-02T00:32:52.952Z,83.70
2018-10-02T00:35:20.732Z,83.90
2018-10-02T00:37:49.703Z,83.40
2018-10-02T00:40:17.533Z,82.10
2018-10-02T00:42:45.300Z,79.40
2018-10-02T00:45:13.072Z,79.70
2018-10-02T00:47:40.896Z,79.50
2018-10-02T00:50:08.672Z,79.20
2018-10-02T00:52:36.450Z,79.40
2018-10-02T00:55:04.332Z,80.60
2018-10-02T00:57:32.124Z,81.50
2018-10-02T00:59:59.909Z,82.30
2018-10-02T01:02:27.748Z,82.70
2018-10-02T01:04:55.581Z,82.60
2018-10-02T01:07:23.417Z,83.20
2018-10-02T01:09:51.269Z,83.90
2018-10-02T01:12:19.057Z,84.00
2018-10-02T01:14:46.885Z,84.70
2018-10-02T01:17:14.646Z,85.70
2018-10-02T01:19:42.434Z,85.50
2018-10-02T01:22:10.191Z,86.10
2018-10-02T01:24:38.001Z,85.60
2018-10-02T01:27:05.902Z,85.60
2018-10-02T01:29:33.684Z,84.70
2018-10-02T01:32:01.477Z,84.00
2018-10-02T01:34:29.250Z,84.30
2018-10-02T01:36:57.020Z,84.70
2018-10-02T01:39:24.876Z,84.80
2018-10-02T01:41:52.665Z,85.30
2018-10-02T01:44:20.581Z,85.70
2018-10-02T01:46:48.389Z,85.10
2018-10-02T01:49:16.140Z,85.40
2018-10-02T01:51:43.941Z,85.10
2018-10-02T01:54:11.709Z,85.60
2018-10-02T01:56:39.537Z,85.50
2018-10-02T01:59:07.306Z,86.10
2018-10-02T02:01:35.117Z,86.40
2018-10-02T02:04:03.565Z,87.00
2018-10-02T02:06:31.325Z,87.60
2018-10-02T02:08:59.157Z,87.50
2018-10-02T02:11:26.906Z,87.60
2018-10-02T02:13:54.655Z,87.60
2018-10-02T02:16:22.605Z,87.70
2018-10-02T02:18:50.524Z,88.10
2018-10-02T02:21:18.392Z,88.60
2018-10-02T02:23:46.197Z,88.50
2018-10-02T02:26:13.985Z,88.80
2018-10-02T02:28:41.790Z,88.10
2018-10-02T02:31:09.573Z,87.60
2018-10-02T02:33:37.333Z,87.50
2018-10-02T02:36:05.151Z,87.40
2018-10-02T02:38:32.944Z,87.40
2018-10-02T02:41:02.977Z,87.60
2018-10-02T02:43:30.854Z,87.70
2018-10-02T02:45:58.644Z,87.60
2018-10-02T02:48:31.841Z,88.10
2018-10-02T02:51:05.053Z,88.50
2018-10-02T02:53:32.881Z,88.10
2018-10-02T02:56:00.698Z,88.30
2018-10-02T02:58:28.469Z,88.90
2018-10-02T03:00:56.306Z,89.30
2018-10-02T03:03:24.101Z,89.70
2018-10-02T03:05:51.883Z,89.90
2018-10-02T03:08:19.665Z,89.70
2018-10-02T03:10:47.441Z,89.20
2018-10-02T03:13:15.210Z,89.80
2018-10-02T03:15:43.001Z,90.00
2018-10-02T03:18:10.769Z,90.20
2018-10-02T03:20:38.549Z,90.30
2018-10-02T03:23:06.329Z,90.50
2018-10-02T03:25:34.119Z,90.60
2018-10-02T03:28:02.037Z,90.80
2018-10-02T03:30:29.773Z,90.70
2018-10-02T03:32:57.546Z,90.50
2018-10-02T03:35:25.321Z,90.50
2018-10-02T03:37:53.136Z,90.30
2018-10-02T03:40:21.050Z,90.10
2018-10-02T03:42:48.834Z,90.20
2018-10-02T03:45:17.213Z,90.20
2018-10-02T03:47:45.008Z,90.50
2018-10-02T03:50:12.768Z,90.50
2018-10-02T03:52:40.706Z,91.00
2018-10-02T03:55:08.524Z,91.30
2018-10-02T03:57:36.617Z,91.50
2018-10-02T04:00:05.075Z,91.70
2018-10-02T04:02:32.866Z,91.90
2018-10-02T04:05:00.721Z,91.80
2018-10-02T04:07:28.493Z,91.80
2018-10-02T04:09:56.241Z,91.60
2018-10-02T04:12:24.033Z,91.20
2018-10-02T04:14:51.806Z,90.80
2018-10-02T04:17:19.617Z,90.80
2018-10-02T04:19:47.361Z,90.30
2018-10-02T04:22:15.166Z,90.20
2018-10-02T04:24:42.949Z,90.50
2018-10-02T04:27:10.725Z,90.40
2018-10-02T04:29:38.501Z,90.20
2018-10-02T04:32:07.601Z,90.10
2018-10-02T04:34:35.406Z,90.00
2018-10-02T04:37:03.197Z,89.40
2018-10-02T04:39:31.202Z,87.40
2018-10-02T04:41:59.017Z,87.40
2018-10-02T04:44:26.764Z,87.60
2018-10-02T04:46:54.528Z,86.30
2018-10-02T04:49:22.365Z,85.10
2018-10-02T04:51:50.142Z,84.10
2018-10-02T04:54:17.921Z,83.60
2018-10-02T04:56:45.714Z,84.30
2018-10-02T04:59:13.503Z,86.00
2018-10-02T05:01:41.282Z,87.30
2018-10-02T05:04:09.117Z,88.30
2018-10-02T05:06:36.893Z,89.00
2018-10-02T05:09:06.566Z,89.80
2018-10-02T05:11:34.450Z,90.20
2018-10-02T05:14:02.269Z,88.60
2018-10-02T05:16:30.105Z,87.50
2018-10-02T05:18:57.892Z,87.10
2018-10-02T05:21:25.649Z,86.40
2018-10-02T05:23:53.425Z,87.70
2018-10-02T05:26:21.672Z,86.90
2018-10-02T05:28:49.446Z,86.10
2018-10-02T05:31:17.688Z,86.80
2018-10-02T05:33:46.103Z,86.80
2018-10-02T05:36:13.901Z,86.00
2018-10-02T05:38:41.709Z,86.40
2018-10-02T05:41:09.541Z,86.00
2018-10-02T05:43:38.511Z,85.00
2018-10-02T05:46:06.401Z,84.40
2018-10-02T05:48:34.177Z,84.80
2018-10-02T05:51:02.093Z,85.60
2018-10-02T05:53:29.877Z,85.80
2018-10-02T05:55:57.681Z,85.30
2018-10-02T05:58:25.462Z,85.80
2018-10-02T06:00:53.397Z,84.50
2018-10-02T06:03:21.438Z,84.80
2018-10-02T06:05:49.241Z,84.20
2018-10-02T06:08:17.034Z,83.60
2018-10-02T06:10:44.882Z,82.00
2018-10-02T06:13:12.673Z,82.80
2018-10-02T06:15:41.489Z,82.60
2018-10-02T06:18:10.598Z,83.50
2018-10-02T06:20:38.394Z,84.90
2018-10-02T06:23:06.606Z,84.80
2018-10-02T06:25:34.417Z,85.00
2018-10-02T06:28:02.220Z,85.40
2018-10-02T06:30:30.023Z,85.60
2018-10-02T06:32:57.797Z,86.50
2018-10-02T06:35:25.606Z,87.00
2018-10-02T06:37:53.436Z,87.40
2018-10-02T06:40:21.276Z,86.60
2018-10-02T06:42:49.041Z,86.60
2018-10-02T06:45:16.839Z,86.60
2018-10-02T06:47:44.612Z,86.00
2018-10-02T06:50:12.397Z,85.90
2018-10-02T06:52:40.597Z,86.60
2018-10-02T06:55:08.717Z,86.40
2018-10-02T06:57:36.758Z,85.90
2018-10-02T07:00:04.577Z,86.10
2018-10-02T07:02:32.400Z,85.50
2018-10-02T07:05:00.145Z,85.40
2018-10-02T07:07:28.061Z,85.30
2018-10-02T07:09:55.825Z,85.50
2018-10-02T07:12:23.662Z,85.10
2018-10-02T07:14:51.485Z,86.50
2018-10-02T07:17:19.272Z,85.30
2018-10-02T07:19:47.092Z,81.40
2018-10-02T07:22:14.972Z,79.80
2018-10-02T07:24:42.764Z,79.70
2018-10-02T07:27:10.730Z,80.10
2018-10-02T07:29:38.421Z,80.10
2018-10-02T07:32:06.244Z,80.00
2018-10-02T07:34:34.028Z,75.80
2018-10-02T07:37:01.939Z,76.70
2018-10-02T07:39:29.742Z,75.60
2018-10-02T07:41:57.580Z,72.50
2018-10-02T07:44:25.420Z,71.00
2018-10-02T07:46:53.145Z,69.80
2018-10-02T07:49:20.949Z,66.20
2018-10-02T07:51:48.812Z,59.10
2018-10-02T07:54:16.580Z,59.10
2018-10-02T07:56:44.389Z,59.60
2018-10-02T07:59:12.169Z,55.20
2018-10-02T08:01:39.962Z,54.90
2018-10-02T08:04:07.729Z,55.80
2018-10-02T08:06:35.517Z,53.50
2018-10-02T08:09:04.354Z,53.60
2018-10-02T08:11:32.161Z,54.50
2018-10-02T08:13:59.917Z,55.20
2018-10-02T08:16:27.697Z,55.70
2018-10-02T08:18:55.468Z,57.00
2018-10-02T08:21:23.254Z,55.20
2018-10-02T08:23:51.130Z,56.70
2018-10-02T08:26:18.932Z,56.10
2018-10-02T08:28:46.705Z,53.80
2018-10-02T08:31:14.508Z,53.60
2018-10-02T08:33:42.284Z,54.50
2018-10-02T08:36:10.184Z,53.00
2018-10-02T08:38:37.895Z,53.00
2018-10-02T08:41:05.840Z,51.50
2018-10-02T08:43:33.766Z,52.00
2018-10-02T08:46:01.522Z,49.40
2018-10-02T08:48:29.325Z,49.40
2018-10-02T08:50:57.149Z,49.40
2018-10-02T08:53:24.985Z,50.30
2018-10-02T08:55:52.725Z,46.30
2018-10-02T08:58:20.482Z,44.20
2018-10-02T09:00:48.438Z,46.60
2018-10-02T09:03:16.339Z,46.30
2018-10-02T09:05:44.097Z,46.80
2018-10-02T09:08:11.932Z,42.70
2018-10-02T09:10:39.708Z,40.10
2018-10-02T09:13:07.502Z,38.70
2018-10-02T09:15:35.324Z,38.50
2018-10-02T09:18:03.087Z,37.00
2018-10-02T09:20:31.132Z,39.00
2018-10-02T09:22:58.965Z,39.00
2018-10-02T09:25:26.741Z,38.70
2018-10-02T09:27:54.505Z,40.20
2018-10-02T09:30:28.146Z,39.00
2018-10-02T09:33:01.410Z,40.90
2018-10-02T09:35:34.656Z,40.60
2018-10-02T09:38:08.893Z,41.20
2018-10-02T09:40:42.364Z,40.60
2018-10-02T09:43:19.551Z,42.90
2018-10-02T09:45:47.462Z,43.40
2018-10-02T09:48:15.304Z,42.30
2018-10-02T09:50:43.194Z,39.60
2018-10-02T09:53:10.897Z,38.30
2018-10-02T09:55:38.674Z,36.20
2018-10-02T09:58:06.445Z,35.10
2018-10-02T10:00:39.790Z,33.70
2018-10-02T10:03:07.697Z,33.70
2018-10-02T10:05:35.389Z,34.40
2018-10-02T10:08:03.221Z,34.00
2018-10-02T10:10:31.074Z,34.40
2018-10-02T10:12:58.919Z,34.40
2018-10-02T10:15:26.741Z,36.20
2018-10-02T10:17:54.544Z,36.00
2018-10-02T10:20:22.316Z,34.90
2018-10-02T10:22:50.146Z,37.10
2018-10-02T10:25:17.925Z,35.70
2018-10-02T10:27:45.685Z,37.30
2018-10-02T10:30:13.584Z,34.60
2018-10-02T10:32:41.377Z,36.00
2018-10-02T10:35:09.150Z,36.10
2018-10-02T10:37:36.999Z,32.70
2018-10-02T10:40:04.915Z,32.80
2018-10-02T10:42:32.795Z,34.50
2018-10-02T10:45:00.590Z,31.30
2018-10-02T10:47:28.447Z,29.30
2018-10-02T10:49:56.285Z,28.00
2018-10-02T10:52:24.161Z,28.10
2018-10-02T10:55:03.194Z,27.70
2018-10-02T10:57:31.023Z,29.40
2018-10-02T10:59:58.837Z,29.80
2018-10-02T11:02:26.621Z,29.70
2018-10-02T11:04:54.387Z,29.00
2018-10-02T11:07:22.237Z,28.20
2018-10-02T11:09:50.189Z,30.00
2018-10-02T11:12:18.029Z,30.50
2018-10-02T11:14:45.905Z,29.70
2018-10-02T11:17:13.781Z,29.40
2018-10-02T11:19:41.609Z,29.70
2018-10-02T11:22:09.506Z,29.60
2018-10-02T11:24:37.313Z,31.20
2018-10-02T11:27:05.134Z,32.90
2018-10-02T11:29:32.968Z,33.50
2018-10-02T11:32:00.779Z,34.20
2018-10-02T11:34:28.572Z,34.70
2018-10-02T11:36:56.417Z,36.20
2018-10-02T11:39:24.241Z,35.80
2018-10-02T11:41:52.090Z,36.70
2018-10-02T11:44:19.972Z,37.70
2018-10-02T11:46:47.706Z,38.60
2018-10-02T11:49:15.535Z,40.00
2018-10-02T11:51:43.277Z,41.30
2018-10-02T11:54:11.040Z,40.60
2018-10-02T11:56:38.906Z,40.20
2018-10-02T11:59:06.664Z,40.70
2018-10-02T12:01:34.473Z,41.00
2018-10-02T12:04:02.297Z,40.90
2018-10-02T12:06:30.065Z,41.70
2018-10-02T12:08:57.888Z,41.10
2018-10-02T12:11:25.663Z,41.50
2018-10-02T12:13:53.533Z,39.00
2018-10-02T12:16:21.262Z,38.20
2018-10-02T12:18:49.069Z,38.90
2018-10-02T12:21:16.862Z,38.80
2018-10-02T12:23:44.713Z,39.00
2018-10-02T12:26:12.493Z,38.50
2018-10-02T12:28:40.295Z,38.10
2018-10-02T12:31:08.122Z,38.60
2018-10-02T12:33:35.952Z,39.50
2018-10-02T12:36:04.353Z,39.20
2018-10-02T12:38:32.187Z,38.90
2018-10-02T12:40:59.961Z,36.60
2018-10-02T12:43:27.744Z,38.40
2018-10-02T12:45:55.544Z,38.40
2018-10-02T12:48:23.724Z,38.90
2018-10-02T12:50:51.597Z,39.50
2018-10-02T12:53:19.444Z,39.80
2018-10-02T12:55:47.210Z,41.50
2018-10-02T12:58:15.981Z,42.10
2018-10-02T13:00:43.766Z,42.10
2018-10-02T13:03:11.582Z,41.80
2018-10-02T13:05:39.361Z,41.50
2018-10-02T13:08:07.164Z,41.70
2018-10-02T13:10:34.948Z,40.40
2018-10-02T13:13:02.834Z,39.10
2018-10-02T13:15:30.669Z,39.40
2018-10-02T13:17:58.444Z,38.50
2018-10-02T13:20:26.245Z,38.90
2018-10-02T13:22:54.025Z,39.40
2018-10-02T13:25:21.882Z,39.10
2018-10-02T13:27:49.658Z,38.40
2018-10-02T13:30:17.445Z,38.40
2018-10-02T13:32:45.404Z,37.30
2018-10-02T13:35:13.269Z,38.70
2018-10-02T13:37:41.130Z,36.70
2018-10-02T13:40:09.045Z,36.90
2018-10-02T13:42:36.993Z,38.60
2018-10-02T13:45:04.786Z,39.80
2018-10-02T13:47:33.149Z,40.10
2018-10-02T13:50:01.001Z,39.80
2018-10-02T13:52:28.781Z,39.90
2018-10-02T13:54:56.558Z,40.00
2018-10-02T13:57:24.361Z,39.20
2018-10-02T13:59:52.746Z,40.40
2018-10-02T14:02:20.614Z,40.30
2018-10-02T14:04:49.469Z,42.20
2018-10-02T14:07:17.230Z,43.80
2018-10-02T14:09:45.122Z,44.20
2018-10-02T14:12:12.954Z,43.70
2018-10-02T14:14:40.743Z,44.40
2018-10-02T14:17:08.723Z,45.20
2018-10-02T14:19:36.577Z,45.30
2018-10-02T14:22:04.362Z,45.30
2018-10-02T14:24:32.186Z,44.70
2018-10-02T14:26:59.972Z,45.20
2018-10-02T14:29:27.776Z,45.90
2018-10-02T14:31:55.529Z,46.70
2018-10-02T14:34:23.336Z,45.90
2018-10-02T14:36:51.152Z,45.40
2018-10-02T14:39:18.958Z,45.80
2018-10-02T14:41:46.725Z,46.50
2018-10-02T14:44:14.521Z,46.60
2018-10-02T14:46:42.318Z,46.30
2018-10-02T14:49:10.076Z,46.70
2018-10-02T14:51:37.909Z,47.70
2018-10-02T14:54:05.749Z,48.10
2018-10-02T14:56:33.533Z,47.30
2018-10-02T14:59:01.377Z,48.50
2018-10-02T15:01:29.142Z,48.30
2018-10-02T15:03:56.917Z,48.30
2018-10-02T15:06:24.709Z,48.70
2018-10-02T15:08:52.537Z,49.40
2018-10-02T15:11:20.414Z,49.00
2018-10-02T15:13:48.167Z,48.50
2018-10-02T15:16:15.933Z,49.20
2018-10-02T15:18:43.741Z,49.70
2018-10-02T15:21:11.530Z,49.40
2018-10-02T15:23:39.353Z,49.20
2018-10-02T15:26:07.184Z,49.90
2018-10-02T15:28:34.993Z,49.70
2018-10-02T15:31:02.846Z,49.70
2018-10-02T15:33:30.654Z,49.80
2018-10-02T15:35:58.423Z,50.60
2018-10-02T15:38:26.299Z,51.00
2018-10-02T15:40:54.067Z,51.40
2018-10-02T15:43:21.897Z,50.50
2018-10-02T15:45:49.693Z,50.60
2018-10-02T15:48:17.498Z,50.50
2018-10-02T15:50:45.358Z,49.90
2018-10-02T15:53:13.089Z,50.40
2018-10-02T15:55:40.897Z,51.10
2018-10-02T15:58:08.743Z,51.40
2018-10-02T16:00:36.485Z,51.40
2018-10-02T16:03:04.359Z,51.40
2018-10-02T16:05:32.117Z,51.80
2018-10-02T16:07:59.873Z,51.30
2018-10-02T16:10:27.661Z,51.60
2018-10-02T16:12:55.511Z,51.70
2018-10-02T16:15:23.309Z,52.10
2018-10-02T16:17:51.204Z,52.00
2018-10-02T16:20:18.937Z,52.30
2018-10-02T16:22:46.717Z,52.80
2018-10-02T16:25:14.526Z,53.30
2018-10-02T16:27:42.385Z,53.20
2018-10-02T16:30:10.161Z,53.10
2018-10-02T16:32:37.946Z,53.50
2018-10-02T16:35:05.801Z,53.30
2018-10-02T16:37:33.638Z,53.80
2018-10-02T16:40:01.446Z,54.40
2018-10-02T16:42:29.546Z,54.50
2018-10-02T16:44:57.317Z,54.50
2018-10-02T16:47:25.110Z,54.60
2018-10-02T16:49:53.911Z,55.00
2018-10-02T16:52:21.724Z,55.30
2018-10-02T16:57:42.309Z,54.80
2018-10-02T17:03:13.457Z,55.00
2018-10-02T17:05:42.382Z,55.00
2018-10-02T17:08:10.460Z,55.10
2018-10-02T17:10:38.326Z,55.80
2018-10-02T17:13:06.139Z,55.90
2018-10-02T17:15:35.247Z,56.00
2018-10-02T17:18:03.071Z,56.70
2018-10-02T17:20:31.121Z,56.30
2018-10-02T17:23:04.065Z,56.60
2018-10-02T17:25:31.944Z,56.40
2018-10-02T17:28:00.457Z,56.60
2018-10-02T17:30:28.280Z,57.30
2018-10-02T17:32:56.098Z,57.10
2018-10-02T17:35:24.085Z,57.30
2018-10-02T17:37:52.290Z,57.00
2018-10-02T17:40:20.232Z,57.40
2018-10-02T17:42:47.985Z,57.70
2018-10-02T17:45:15.823Z,57.30
2018-10-02T17:47:43.630Z,57.60
2018-10-02T17:50:11.445Z,57.90
2018-10-02T17:52:39.344Z,58.00
2018-10-02T17:55:07.186Z,58.30
2018-10-02T17:57:34.989Z,58.40
2018-10-02T18:00:03.057Z,59.00
2018-10-02T18:02:30.835Z,59.10
2018-10-02T18:04:59.017Z,59.80
2018-10-02T18:07:26.882Z,60.10
2018-10-02T18:09:54.945Z,59.40
2018-10-02T18:12:22.797Z,58.10
2018-10-02T18:14:50.614Z,59.50
2018-10-02T18:17:18.457Z,60.90
2018-10-02T18:19:52.501Z,61.40
2018-10-02T18:22:20.342Z,62.80
2018-10-02T18:24:48.141Z,64.30
2018-10-02T18:27:17.930Z,63.20
2018-10-02T18:29:45.728Z,64.80
2018-10-02T18:32:14.777Z,66.10
2018-10-02T18:34:42.537Z,67.30
2018-10-02T18:37:11.247Z,67.70
2018-10-02T18:39:39.205Z,66.60
2018-10-02T18:42:07.112Z,65.50
2018-10-02T18:44:34.916Z,65.70
2018-10-02T18:47:02.731Z,65.60
2018-10-02T18:49:30.506Z,65.70
2018-10-02T18:51:58.414Z,66.80
2018-10-02T18:54:26.229Z,67.30
2018-10-02T18:56:54.209Z,67.10
2018-10-02T18:59:22.637Z,67.40
2018-10-02T19:01:50.453Z,68.10
2018-10-02T19:04:18.309Z,68.60
2018-10-02T19:06:46.154Z,66.50
2018-10-02T19:09:16.253Z,68.70
2018-10-02T19:11:49.645Z,69.00
2018-10-02T19:14:18.358Z,65.90
2018-10-02T19:16:46.178Z,68.50
2018-10-02T19:21:24.077Z,64.80
2018-10-02T19:23:51.902Z,61.80
2018-10-02T19:26:21.356Z,62.40
2018-10-02T19:28:51.545Z,62.00
2018-10-02T19:31:24.901Z,63.40
2018-10-02T19:33:56.308Z,64.90
2018-10-02T19:36:24.201Z,65.40
2018-10-02T19:38:57.604Z,66.30
2018-10-02T19:41:26.213Z,67.90
2018-10-02T19:43:54.286Z,67.00
2018-10-02T19:46:26.347Z,68.30
2018-10-02T19:48:54.713Z,69.10
2018-10-02T19:51:27.996Z,69.50
2018-10-02T19:53:56.105Z,69.20
2018-10-02T19:56:23.931Z,69.90
2018-10-02T19:58:51.758Z,70.30
2018-10-02T20:01:19.593Z,71.40
2018-10-02T20:03:47.512Z,71.90
2018-10-02T20:06:15.289Z,71.70
2018-10-02T20:08:43.084Z,72.70
2018-10-02T20:11:10.898Z,72.80
2018-10-02T20:13:38.766Z,73.00
2018-10-02T20:16:06.805Z,73.20
2018-10-02T20:18:34.670Z,73.20
2018-10-02T20:21:02.467Z,73.80
2018-10-02T20:23:30.264Z,73.70
2018-10-02T20:25:58.181Z,74.90
2018-10-02T20:28:26.065Z,75.70
2018-10-02T20:30:54.025Z,76.40
2018-10-02T20:33:21.886Z,77.80
2018-10-02T20:35:49.779Z,78.40
2018-10-02T20:38:17.557Z,79.10
2018-10-02T20:40:47.055Z,79.50
2018-10-02T20:43:14.815Z,78.00
2018-10-02T20:45:42.658Z,77.90
2018-10-02T20:48:10.489Z,78.70
2018-10-02T20:50:38.250Z,79.40
2018-10-02T20:53:06.153Z,79.80
2018-10-02T20:55:33.909Z,80.40
2018-10-02T20:58:02.045Z,80.30
2018-10-02T21:00:29.904Z,79.90
2018-10-02T21:02:57.814Z,80.10
2018-10-02T21:05:25.609Z,80.40
2018-10-02T21:07:53.440Z,79.80
2018-10-02T21:10:21.252Z,80.10
2018-10-02T21:12:49.046Z,80.30
2018-10-02T21:15:17.033Z,79.60
2018-10-02T21:17:44.737Z,79.20
2018-10-02T21:20:12.523Z,79.10
2018-10-02T21:22:40.339Z,79.30
2018-10-02T21:25:08.333Z,77.40
2018-10-02T21:27:36.176Z,77.90
2018-10-02T21:30:04.434Z,77.50
2018-10-02T21:32:34.441Z,78.20
2018-10-02T21:35:02.230Z,79.00
2018-10-02T21:37:30.158Z,78.80
2018-10-02T21:39:58.056Z,78.70
2018-10-02T21:42:26.124Z,78.70
2018-10-02T21:44:54.184Z,79.00
2018-10-02T21:47:21.989Z,79.60
2018-10-02T21:49:49.889Z,79.00
2018-10-02T21:52:17.698Z,78.90
2018-10-02T21:54:47.059Z,78.10
2018-10-02T21:57:15.034Z,78.30
2018-10-02T21:59:42.799Z,77.60
2018-10-02T22:02:10.619Z,76.80
2018-10-02T22:04:38.616Z,76.40
2018-10-02T22:07:06.445Z,77.10
2018-10-02T22:09:34.302Z,77.00
2018-10-02T22:12:02.137Z,77.90
2018-10-02T22:14:29.922Z,77.20
2018-10-02T22:16:57.926Z,76.40
2018-10-02T22:19:25.757Z,76.90
2018-10-02T22:21:53.819Z,76.80
2018-10-02T22:24:21.741Z,76.20
2018-10-02T22:26:49.717Z,77.10
2018-10-02T22:29:17.617Z,77.60
2018-10-02T22:31:45.451Z,77.50
2018-10-02T22:34:13.340Z,78.20
2018-10-02T22:36:41.524Z,78.10
2018-10-02T22:39:09.992Z,76.70
2018-10-02T22:41:37.789Z,77.10
2018-10-02T22:44:05.918Z,75.40
2018-10-02T22:46:34.796Z,75.40
2018-10-02T22:49:02.718Z,73.60
2018-10-02T22:51:30.551Z,72.70
2018-10-02T22:53:58.509Z,71.30
2018-10-02T22:56:26.453Z,72.20
2018-10-02T22:58:54.656Z,72.10
2018-10-02T23:01:22.457Z,72.50
2018-10-02T23:03:50.305Z,73.30
2018-10-02T23:06:18.092Z,73.50
2018-10-02T23:08:45.951Z,73.80
2018-10-02T23:11:13.770Z,74.10
2018-10-02T23:13:41.604Z,74.50
2018-10-02T23:16:09.441Z,74.70
2018-10-02T23:18:37.246Z,74.00
2018-10-02T23:21:05.132Z,74.00
2018-10-02T23:23:33.013Z,74.50
2018-10-02T23:26:00.843Z,75.20
2018-10-02T23:28:28.685Z,75.40
2018-10-02T23:30:56.565Z,74.00
2018-10-02T23:33:24.352Z,74.50
2018-10-02T23:35:52.141Z,74.90
2018-10-02T23:38:19.997Z,74.90
2018-10-02T23:40:47.768Z,75.50
2018-10-02T23:43:15.584Z,75.60
2018-10-02T23:45:43.365Z,75.70
2018-10-02T23:48:11.155Z,75.50
2018-10-02T23:50:39.022Z,75.20
2018-10-02T23:53:06.844Z,74.50
2018-10-02T23:55:34.690Z,74.30
2018-10-02T23:58:02.513Z,75.00
